Flight Track Log - Related Links

Times and Time Zones

All times are in EDT time to prevent confusion due to time zone crossing. See the N900D flight status page for this flight to view local times or setup timezone preferences in your user account.

Time Position Orientation Groundspeed Altitude Reporting Facility
EDT Latitude Longitude Course Direction KTS MPH feet Rate Location/Type
Thu 07:25:54 PM 40.8428 -74.0756 205° Southwest 145 167 500  Level FlightAware ADS-B
Thu 07:26:09 PM 40.8357 -74.0851 225° Southwest 145 167 1,000 1,935 Climbing FlightAware ADS-B
Thu 07:26:25 PM 40.8281 -74.0995 235° Southwest 145 167 1,500 2,464 Climbing FlightAware ADS-B
Thu 07:27:05 PM 40.8156 -74.1471 251° West 145 167 3,300 2,679 Climbing FlightAware ADS-B
Thu 07:27:21 PM 40.8132 -74.1669 261° West 145 167 4,000 3,000 Climbing FlightAware ADS-B
Thu 07:27:37 PM 40.8075 -74.1883 251° West 145 167 4,900 3,188 Climbing FlightAware ADS-B
Thu 07:27:53 PM 40.7952 -74.2005 217° Southwest 145 167 5,700 2,813 Climbing FlightAware ADS-B
Thu 07:28:09 PM 40.7806 -74.2113 209° Southwest 145 167 6,400 2,727 Climbing FlightAware ADS-B
Thu 07:28:26 PM 40.7630 -74.2232 207° Southwest 145 167 7,200 2,471 Climbing FlightAware ADS-B
Thu 07:28:43 PM 40.7477 -74.2338 208° Southwest 145 167 7,800 2,250 Climbing FlightAware ADS-B
Thu 07:28:57 PM 40.7367 -74.2517 231° Southwest 8,400 2,400 Climbing FlightAware ADS-B
Thu 07:28:58 PM 40.7359 -74.2546 250° West 145 167 8,400 2,000 Level FlightAware ADS-B
Thu 07:29:15 PM 40.7360 -74.2793 270° West 250 288 9,000 2,250 Climbing FlightAware ADS-B
Thu 07:29:22 PM 40.7396 -74.2894 295° West 145 167 9,300 2,000 Climbing FlightAware ADS-B
Thu 07:29:30 PM 40.7471 -74.3007 311° West 284 327 9,500 1,579 Climbing FlightAware ADS-B
Thu 07:29:41 PM 40.7582 -74.3100 328° Northwest 145 167 9,800 1,600 Climbing FlightAware ADS-B
Thu 07:29:45 PM 40.7641 -74.3142 332° Northwest 287 330 9,900 1,400 Climbing FlightAware ADS-B
Thu 07:30:11 PM 40.7968 -74.3362 333° Northwest 145 167 10,500 1,500 Climbing FlightAware ADS-B
Thu 07:30:17 PM 40.8035 -74.3407 333° Northwest 305 351 10,700 2,129 Climbing FlightAware ADS-B
Thu 07:30:42 PM 40.8387 -74.3650 332° Northwest 145 167 11,600 2,294 Climbing FlightAware ADS-B
Thu 07:30:51 PM 40.8497 -74.3726 332° Northwest 333 383 12,000 2,500 Climbing FlightAware ADS-B
Thu 07:31:18 PM 40.8868 -74.3989 332° Northwest 145 167 13,100 2,438 Climbing FlightAware ADS-B
Thu 07:31:23 PM 40.8938 -74.4039 332° Northwest 342 394 13,300 2,526 Climbing FlightAware ADS-B
Thu 07:31:56 PM 40.9379 -74.4445 325° Northwest 359 413 14,700 2,182 Climbing FlightAware ADS-B
Thu 07:32:29 PM 40.9638 -74.4982 303° West 329 379 15,700 1,524 Climbing FlightAware ADS-B
Thu 07:32:59 PM 40.9658 -74.5584 273° West 327 376 16,300 1,292 Climbing FlightAware ADS-B
Thu 07:33:10 PM 40.9640 -74.5804 264° West 16,600 1,371 Climbing FlightAware ADS-B
Thu 07:33:34 PM 40.9606 -74.6288 265° West 310 357 17,100 1,161 Climbing FlightAware ADS-B
Thu 07:33:41 PM 40.9595 -74.6429 264° West 325 374 17,200 774 Climbing FlightAware ADS-B
Thu 07:34:05 PM 40.9559 -74.6909 264° West 320 368 17,500 800 Climbing FlightAware ADS-B
Thu 07:34:11 PM 40.9550 -74.7027 264° West 325 374 17,600 375 Climbing FlightAware ADS-B
Thu 07:34:37 PM 40.9511 -74.7535 264° West 332 382 17,700 107 Climbing FlightAware ADS-B
Thu 07:35:07 PM 40.9465 -74.8116 264° West 322 371 17,700  Level FlightAware ADS-B
Thu 07:35:40 PM 40.9411 -74.8799 264° West 327 376 17,700  Level FlightAware ADS-B
Thu 07:36:10 PM 40.9357 -74.9456 264° West 362 417 17,700 387 Level FlightAware ADS-B
Thu 07:36:42 PM 40.9303 -75.0101 264° West 342 394 18,100 1,333 Climbing FlightAware ADS-B
Thu 07:37:13 PM 40.9187 -75.0733 256° West 356 410 19,100 2,419 Climbing FlightAware ADS-B
Thu 07:37:44 PM 40.9046 -75.1340 253° West 327 376 20,600 2,951 Climbing FlightAware ADS-B
Thu 07:38:14 PM 40.8912 -75.1922 253° West 316 364 22,100 2,656 Climbing FlightAware ADS-B
Thu 07:38:45 PM 40.8786 -75.2462 253° West 314 361 23,300 1,967 Climbing FlightAware ADS-B
Thu 07:39:15 PM 40.8655 -75.3022 253° West 305 351 24,100 1,475 Climbing FlightAware ADS-B
Thu 07:39:46 PM 40.8524 -75.3579 253° West 317 365 24,800 1,279 Climbing FlightAware ADS-B
Thu 07:40:16 PM 40.8391 -75.4147 253° West 306 352 25,400 1,258 Climbing FlightAware ADS-B
Thu 07:40:48 PM 40.8242 -75.4782 253° West 357 411 26,100 1,161 Climbing FlightAware ADS-B
Thu 07:41:18 PM 40.8109 -75.5344 253° West 314 361 26,600 984 Climbing FlightAware ADS-B
Thu 07:41:49 PM 40.7962 -75.5969 253° West 347 399 27,100 968 Climbing FlightAware ADS-B
Thu 07:42:20 PM 40.7823 -75.6558 253° West 338 389 27,600 984 Climbing FlightAware ADS-B
Thu 07:42:50 PM 40.7753 -75.7197 262° West 378 435 28,100 871 Climbing FlightAware ADS-B
Thu 07:43:22 PM 40.7792 -75.7861 274° West 350 403 28,500 656 Climbing FlightAware ADS-B
Thu 07:43:54 PM 40.7835 -75.8553 275° West 357 411 28,800 571 Climbing FlightAware ADS-B
Thu 07:44:25 PM 40.7877 -75.9231 275° West 359 413 29,100 581 Climbing FlightAware ADS-B
Thu 07:44:56 PM 40.7919 -75.9915 275° West 360 414 29,400 656 Climbing FlightAware ADS-B
Thu 07:45:29 PM 40.7963 -76.0648 275° West 363 418 29,800 667 Climbing FlightAware ADS-B
Thu 07:45:59 PM 40.8002 -76.1317 274° West 352 405 30,100 581 Climbing FlightAware ADS-B
Thu 07:46:31 PM 40.8045 -76.2034 275° West 369 425 30,400 571 Climbing FlightAware ADS-B
Thu 07:47:02 PM 40.8085 -76.2734 274° West 354 407 30,700 667 Climbing FlightAware ADS-B
Thu 07:47:34 PM 40.8127 -76.3461 274° West 368 423 31,100 677 Climbing FlightAware ADS-B
Thu 07:48:04 PM 40.8166 -76.4148 274° West 362 417 31,400 656 Climbing FlightAware ADS-B
Thu 07:48:38 PM 40.8211 -76.4938 274° West 390 449 31,800 727 Climbing FlightAware ADS-B
Thu 07:49:10 PM 40.8252 -76.5690 274° West 383 441 32,200 871 Climbing FlightAware ADS-B
Thu 07:49:40 PM 40.8291 -76.6395 274° West 385 443 32,700 952 Climbing FlightAware ADS-B
Thu 07:50:13 PM 40.8332 -76.7168 274° West 385 443 33,200 831 Climbing FlightAware ADS-B
Thu 07:50:45 PM 40.8372 -76.7918 274° West 397 457 33,600 774 Climbing FlightAware ADS-B
Thu 07:51:15 PM 40.8409 -76.8627 274° West 372 428 34,000 571 Climbing FlightAware ADS-B
Thu 07:51:48 PM 40.8451 -76.9417 274° West 392 451 34,200 522 Climbing FlightAware ADS-B
Thu 07:52:18 PM 40.8480 -77.0010 274° West 34,500 667 Climbing FlightAware ADS-B
Thu 07:52:24 PM 40.8494 -77.0278 274° West 391 450 34,600 632 Climbing FlightAware ADS-B
Thu 07:52:56 PM 40.8535 -77.1070 274° West 416 479 34,900 505 Climbing FlightAware ADS-B
Thu 07:53:43 PM 40.8590 -77.2100 274° West 35,300 476 Climbing FlightAware ADS-B
Thu 07:53:59 PM 40.8608 -77.2552 273° West 389 448 35,400 469 Climbing FlightAware ADS-B
Thu 07:54:47 PM 40.8663 -77.3706 274° West 393 452 35,800 519 Climbing FlightAware ADS-B
Thu 07:55:20 PM 40.8701 -77.4503 274° West 397 457 36,100 656 Climbing FlightAware ADS-B
Thu 07:55:51 PM 40.8737 -77.5275 274° West 394 453 36,500 386 Climbing FlightAware ADS-B
Thu 07:56:33 PM 40.8770 -77.6070 273° West 36,800 275 Climbing FlightAware ADS-B
Thu 07:56:59 PM 40.8811 -77.6889 274° West 37,000 179 Climbing FlightAware ADS-B
Thu 07:57:40 PM 40.8854 -77.7885 273° West 389 448 37,000 -19 Level FlightAware ADS-B
Thu 07:58:33 PM 40.8900 -77.8970 273° West 37,000 -19 Level FlightAware ADS-B
Thu 07:59:13 PM 40.8940 -77.9950 273° West 37,000 -20 Level FlightAware ADS-B
Thu 08:00:03 PM 40.9000 -78.1220 274° West 37,000 -20 Level FlightAware ADS-B
Thu 08:00:43 PM 40.9040 -78.2290 273° West 37,000 -20 Level FlightAware ADS-B
Thu 08:01:18 PM 40.9080 -78.3170 273° West 37,000 -20 Level FlightAware ADS-B
Thu 08:02:03 PM 40.9120 -78.4300 273° West 37,000 -21 Level FlightAware ADS-B
Thu 08:02:48 PM 40.9160 -78.5410 273° West 37,000 -21 Level FlightAware ADS-B
Thu 08:03:33 PM 40.9200 -78.6560 273° West 37,000 -21 Level FlightAware ADS-B
Thu 08:04:13 PM 40.9240 -78.7610 273° West 37,000 -22 Level FlightAware ADS-B
Thu 08:04:53 PM 40.9280 -78.8530 273° West 37,000 -22 Level FlightAware ADS-B
Thu 08:05:38 PM 40.9320 -78.9790 272° West 36,900 -22 Descending FlightAware ADS-B
Thu 08:06:18 PM 40.9350 -79.0770 272° West 36,900 -20 Level FlightAware ADS-B
Thu 08:07:03 PM 40.9390 -79.1960 273° West 36,900 -21 Level FlightAware ADS-B
Thu 08:07:43 PM 40.9420 -79.2920 272° West 36,900 -21 Level FlightAware ADS-B
Thu 08:08:23 PM 40.9450 -79.3960 272° West 36,900 -22 Level FlightAware ADS-B
Thu 08:09:03 PM 40.9490 -79.5130 273° West 36,900 -22 Level FlightAware ADS-B
Thu 08:09:48 PM 40.9520 -79.6190 272° West 36,900 -22 Level FlightAware ADS-B
Thu 08:10:28 PM 40.9550 -79.7230 272° West 36,900 -23 Level FlightAware ADS-B
Thu 08:11:04 PM 40.9580 -79.8200 272° West 36,900 -23 Level FlightAware ADS-B
Thu 08:11:53 PM 40.9610 -79.9510 272° West 36,800 -23 Descending FlightAware ADS-B
Thu 08:12:38 PM 40.9640 -80.0690 272° West 36,800 -21 Level FlightAware ADS-B
Thu 08:13:18 PM 40.9670 -80.1720 272° West 36,800 -22 Level FlightAware ADS-B
Thu 08:14:03 PM 40.9690 -80.2900 271° West 36,800 -22 Level FlightAware ADS-B
Thu 08:14:38 PM 40.9710 -80.3790 272° West 36,800 -23 Level FlightAware ADS-B
Thu 08:15:23 PM 40.9740 -80.4930 272° West 36,800 -23 Level FlightAware ADS-B
Thu 08:16:03 PM 40.9760 -80.6020 271° West 36,800 -23 Level FlightAware ADS-B
Thu 08:16:48 PM 40.9790 -80.7220 272° West 36,800 -24 Level FlightAware ADS-B
Thu 08:17:33 PM 40.9810 -80.8320 271° West 36,800 -24 Level FlightAware ADS-B
Thu 08:19:38 PM 40.9860 -81.1630 271° West 36,700 -25 Descending FlightAware ADS-B
Thu 08:20:13 PM 40.9880 -81.2550 272° West 36,700 -23 Level FlightAware ADS-B
Thu 08:21:03 PM 40.9900 -81.3850 271° West 36,700 -24 Level FlightAware ADS-B
Thu 08:21:33 PM 40.9910 -81.4590 271° West 36,700 -25 Level FlightAware ADS-B
Thu 08:22:28 PM 40.9920 -81.5990 271° West 36,700 -25 Level FlightAware ADS-B
Thu 08:23:08 PM 40.9930 -81.7010 271° West 36,700 -26 Level FlightAware ADS-B
Thu 08:24:03 PM 40.9950 -81.8450 271° West 36,700 -26 Level FlightAware ADS-B
Thu 08:24:43 PM 40.9960 -81.9480 271° West 36,700 -27 Level FlightAware ADS-B
Thu 08:25:28 PM 40.9970 -82.0590 271° West 36,700 -28 Level FlightAware ADS-B
Thu 08:27:08 PM 40.9990 -82.3250 271° West 36,600 -29 Descending FlightAware ADS-B
Thu 08:27:43 PM 40.9990 -82.4150 270° West 36,600 -27 Level FlightAware ADS-B
Thu 08:28:28 PM 41.0000 -82.5330 271° West 36,600 -27 Level FlightAware ADS-B
Thu 08:30:13 PM 40.9970 -82.8110 269° West 36,600 -28 Level FlightAware ADS-B
Thu 08:31:33 PM 40.9900 -83.0250 268° West 36,600 -31 Level FlightAware ADS-B
Thu 08:34:08 PM 40.9770 -83.4320 268° West 36,600 -33 Level FlightAware ADS-B
Thu 08:34:43 PM 40.9740 -83.5280 268° West 36,600 -39 Level FlightAware ADS-B
Thu 08:39:03 PM 40.9470 -84.2250 267° West 36,600 -40 Level FlightAware ADS-B
Thu 08:39:43 PM 40.9430 -84.3290 267° West 36,600 -57 Level FlightAware ADS-B
Thu 08:40:33 PM 39.0890 -88.0000 238° Southwest -61 Descending FlightAware ADS-B
Thu 08:43:38 PM 38.7080 -88.0000 180° South 3,993 Level FlightAware ADS-B
Thu 08:44:23 PM 40.9090 -85.0770 45° Northeast 36,600 6,067 Climbing FlightAware ADS-B
Thu 08:44:58 PM 40.9050 -85.1630 267° West 36,600 -116 Level FlightAware ADS-B
Thu 08:45:38 PM 40.8990 -85.2670 266° West 36,600 -130 Level FlightAware ADS-B
Thu 08:46:48 PM 38.5170 -88.0000 222° Southwest -153 Descending FlightAware ADS-B
Thu 08:49:34 PM 40.8675 -85.8631 222° Southwest 426 490 36,000 447 Climbing Chicago Center
Thu 08:54:48 PM 40.8190 -86.6870 222° Southwest 36,600 44 Climbing FlightAware ADS-B
Thu 08:55:33 PM 40.8120 -86.7960 265° West 36,600 39 Level FlightAware ADS-B
Thu 08:56:13 PM 40.8050 -86.9030 265° West 36,600 40 Level FlightAware ADS-B
Thu 08:56:58 PM 40.7970 -87.0150 265° West 36,600 40 Level FlightAware ADS-B
Thu 08:57:33 PM 40.7910 -87.1070 265° West 36,600 41 Level FlightAware ADS-B
Thu 08:58:18 PM 40.7840 -87.2140 265° West 36,600 41 Level FlightAware ADS-B
Thu 09:00:33 PM 40.7600 -87.5600 265° West 36,700 41 Climbing FlightAware ADS-B
Thu 09:00:58 PM 40.7560 -87.6260 265° West 36,700 41 Level FlightAware ADS-B
Thu 09:01:38 PM 40.7480 -87.7300 264° West 36,700 41 Level FlightAware ADS-B
Thu 09:02:18 PM 40.7410 -87.8290 265° West 36,700 42 Level FlightAware ADS-B
Thu 09:03:03 PM 40.7320 -87.9460 264° West 36,700 42 Level FlightAware ADS-B
Thu 09:03:38 PM 40.7260 -88.0330 265° West 36,700 43 Level FlightAware ADS-B
Thu 09:04:23 PM 40.7170 -88.1440 264° West 36,700 43 Level FlightAware ADS-B
Thu 09:05:08 PM 40.7080 -88.2680 265° West 36,700 43 Level FlightAware ADS-B
Thu 09:05:48 PM 40.7000 -88.3670 264° West 36,700 44 Level FlightAware ADS-B
Thu 09:06:58 PM 40.6860 -88.5400 264° West 36,700 44 Level FlightAware ADS-B
Thu 09:07:33 PM 40.6800 -88.6210 264° West 36,700 45 Level FlightAware ADS-B
Thu 09:08:18 PM 40.6700 -88.7390 264° West 36,700 45 Level FlightAware ADS-B
Thu 09:09:13 PM 40.6590 -88.8750 264° West 36,800 46 Climbing FlightAware ADS-B
Thu 09:10:03 PM 40.6490 -89.0010 264° West 36,800 45 Level FlightAware ADS-B
Thu 09:10:43 PM 40.6400 -89.1090 264° West 36,800 46 Level FlightAware ADS-B
Thu 09:11:23 PM 40.6320 -89.1990 263° West 36,800 46 Level FlightAware ADS-B
Thu 09:11:58 PM 40.6240 -89.2870 263° West 36,800 46 Level FlightAware ADS-B
Thu 09:13:03 PM 40.6100 -89.4520 264° West 36,800 47 Level FlightAware ADS-B
Thu 09:15:23 PM 40.5780 -89.8070 263° West 36,800 48 Level FlightAware ADS-B
Thu 09:16:33 PM 40.5630 -89.9730 263° West 36,800 50 Level FlightAware ADS-B
Thu 09:17:13 PM 40.5530 -90.0770 263° West 36,800 51 Level FlightAware ADS-B
Thu 09:17:58 PM 40.5430 -90.1870 263° West 36,800 51 Level FlightAware ADS-B
Thu 09:19:08 PM 40.5260 -90.3650 263° West 37,400 52 Climbing FlightAware ADS-B
Thu 09:20:03 PM 40.5130 -90.5020 263° West 38,000 42 Climbing FlightAware ADS-B
Thu 09:22:33 PM 40.4760 -90.8710 263° West 38,900 32 Climbing FlightAware ADS-B
Thu 09:23:48 PM 40.4570 -91.0570 262° West 38,900 17 Level FlightAware ADS-B
Thu 09:24:28 PM 40.4480 -91.1520 263° West 38,900 17 Level FlightAware ADS-B
Thu 09:26:08 PM 40.4200 -91.4110 262° West 38,900 17 Level FlightAware ADS-B
Thu 09:28:33 PM 40.3830 -91.7650 262° West 38,900 18 Level FlightAware ADS-B
Thu 09:31:18 PM 40.3380 -92.1700 262° West 39,000 19 Climbing FlightAware ADS-B
Thu 09:31:58 PM 40.3270 -92.2660 261° West 39,000 18 Level FlightAware ADS-B
Thu 09:33:58 PM 40.2930 -92.5680 262° West 39,000 18 Level FlightAware ADS-B
Thu 09:36:08 PM 40.2560 -92.8860 261° West 39,100 19 Climbing FlightAware ADS-B
Thu 09:37:43 PM 40.2270 -93.1260 261° West 39,100 18 Level FlightAware ADS-B
Thu 09:38:33 PM 40.2120 -93.2510 261° West 39,100 18 Level FlightAware ADS-B
Thu 09:39:18 PM 40.1990 -93.3610 261° West 39,100 19 Level FlightAware ADS-B
Thu 09:41:53 PM 40.1510 -93.7470 261° West 39,100 19 Level FlightAware ADS-B
Thu 09:42:48 PM 40.1330 -93.8870 260° West 39,100 21 Level FlightAware ADS-B
Thu 09:43:58 PM 40.1110 -94.0570 260° West 39,100 21 Level FlightAware ADS-B
Thu 09:45:58 PM 40.0720 -94.3600 261° West 39,200 22 Climbing FlightAware ADS-B
Thu 09:47:33 PM 40.0400 -94.6000 260° West 39,200 20 Level FlightAware ADS-B
Thu 09:48:53 PM 38.1360 -93.9130 164° South 21 Descending FlightAware ADS-B
Thu 09:51:38 PM 38.3260 -93.9130 360° North 1,473 Level FlightAware ADS-B
Thu 09:57:43 PM 38.5170 -96.0000 277° West 1,640 Level FlightAware ADS-B
Thu 09:59:38 PM 39.7850 -96.4070 346° North 39,300 2,189 Climbing FlightAware ADS-B
Thu 09:59:58 PM 39.7770 -96.4570 258° West 39,300 31 Level FlightAware ADS-B
Thu 10:02:28 PM 39.9270 -95.4240 79° East 39,300 31 Level FlightAware ADS-B
Thu 10:02:58 PM 38.5170 -96.0000 198° South 42,900 37 Climbing FlightAware ADS-B
Thu 10:03:53 PM 39.6870 -97.0490 326° Northwest 39,300 -240 Descending FlightAware ADS-B
Thu 10:04:33 PM 39.8420 -96.0210 79° East 39,300 42 Level FlightAware ADS-B
Thu 10:05:08 PM 39.7870 -96.3890 259° West 39,300 44 Level FlightAware ADS-B
Thu 10:06:18 PM 39.7390 -96.7110 259° West 39,300 46 Level FlightAware ADS-B
Thu 10:07:33 PM 39.6010 -97.5900 259° West 39,300 52 Level FlightAware ADS-B
Thu 10:08:48 PM 39.5700 -97.7830 258° West 39,300 60 Level FlightAware ADS-B
Thu 10:09:33 PM 39.5520 -97.8910 258° West 39,300 70 Level FlightAware ADS-B
Thu 10:11:08 PM 39.5130 -98.1270 258° West 39,300 79 Level FlightAware ADS-B
Thu 10:11:53 PM 39.4930 -98.2490 258° West 39,400 105 Climbing FlightAware ADS-B
Thu 10:12:38 PM 39.4750 -98.3570 258° West 39,400 100 Level FlightAware ADS-B
Thu 10:13:43 PM 39.4470 -98.5190 257° West 39,800 122 Climbing FlightAware ADS-B
Thu 10:14:28 PM 39.4290 -98.6290 258° West 40,300  Climbing FlightAware ADS-B
Thu 10:15:33 PM 39.4010 -98.7880 257° West 41,000 -349 Climbing FlightAware ADS-B
Thu 10:15:54 PM 39.3947 -98.8258 257° West 423 487 39,800 -723 Descending Denver Center
Thu 10:16:56 PM 39.3656 -98.9944 257° West 418 481 40,000 113 Climbing Denver Center
Thu 10:17:40 PM 39.3497 -99.0858 257° West 420 483 40,000  Level Kansas City Center
Thu 10:18:41 PM 39.3247 -99.2342 258° West 423 487 40,000  Level Kansas City Center
Thu 10:19:43 PM 39.2967 -99.3839 256° West 428 493 40,000  Level Kansas City Center
Thu 10:20:02 PM 39.2858 -99.4439 257° West 423 487 40,000  Level Denver Center
Thu 10:21:04 PM 39.2564 -99.6078 257° West 421 484 40,000  Level Denver Center
Thu 10:22:06 PM 39.2317 -99.7481 257° West 419 482 40,000  Level Denver Center
Thu 10:23:08 PM 39.2050 -99.8878 256° West 417 480 40,000  Level Denver Center
Thu 10:24:09 PM 39.1764 -100.0469 257° West 414 476 40,000  Level Denver Center
Thu 10:25:11 PM 39.1506 -100.1861 257° West 415 478 40,000  Level Denver Center
Thu 10:26:13 PM 39.1197 -100.3478 256° West 416 479 40,000 184 Level Denver Center
Thu 10:32:15 PM 38.9514 -101.2300 256° West 41,400 213 Climbing FlightAware ADS-B
Thu 10:32:47 PM 38.9362 -101.3070 256° West 390 449 41,400  Level FlightAware ADS-B
Thu 10:33:23 PM 38.9191 -101.3940 256° West 416 479 41,400  Level FlightAware ADS-B
Thu 10:34:26 PM 38.8885 -101.5480 256° West 425 489 41,400  Level FlightAware ADS-B
Thu 10:34:58 PM 38.8731 -101.6250 256° West 418 481 41,400  Level FlightAware ADS-B
Thu 10:35:30 PM 38.8581 -101.7000 256° West 414 476 41,400  Level FlightAware ADS-B
Thu 10:36:01 PM 38.8430 -101.7750 256° West 416 479 41,400  Level FlightAware ADS-B
Thu 10:36:33 PM 38.8274 -101.8530 256° West 418 481 41,400  Level FlightAware ADS-B
Thu 10:37:03 PM 38.8126 -101.9260 255° West 420 483 41,400  Level FlightAware ADS-B
Thu 10:37:34 PM 38.7974 -102.0010 255° West 436 502 41,400  Level FlightAware ADS-B
Thu 10:38:12 PM 38.7786 -102.0930 255° West 418 481 41,400  Level FlightAware ADS-B
Thu 10:38:43 PM 38.7633 -102.1680 255° West 431 496 41,400 98 Level FlightAware ADS-B
Thu 10:39:13 PM 38.7479 -102.2430 255° West 426 490 41,500  Climbing FlightAware ADS-B
Thu 10:39:47 PM 38.7320 -102.3200 255° West 406 467 41,400 -92 Descending FlightAware ADS-B
Thu 10:40:18 PM 38.7161 -102.3960 255° West 400 460 41,400  Level FlightAware ADS-B
Thu 10:40:49 PM 38.7007 -102.4700 255° West 419 482 41,400  Level FlightAware ADS-B
Thu 10:41:20 PM 38.6859 -102.5410 255° West 399 459 41,400  Level FlightAware ADS-B
Thu 10:41:50 PM 38.6700 -102.6170 255° West 410 472 41,400  Level FlightAware ADS-B
Thu 10:42:21 PM 38.6552 -102.6880 255° West 396 456 41,400  Level FlightAware ADS-B
Thu 10:42:51 PM 38.6398 -102.7610 255° West 429 494 41,400 98 Level FlightAware ADS-B
Thu 10:43:22 PM 38.6249 -102.8310 255° West 364 419 41,500 97 Climbing FlightAware ADS-B
Thu 10:43:53 PM 38.6095 -102.9040 255° West 416 479 41,500  Level FlightAware ADS-B
Thu 10:44:25 PM 38.5934 -102.9790 255° West 448 516 41,500  Level FlightAware ADS-B
Thu 10:44:55 PM 38.5779 -103.0520 255° West 396 456 41,500  Level FlightAware ADS-B
Thu 10:45:27 PM 38.5622 -103.1250 255° West 381 438 41,500  Level FlightAware ADS-B
Thu 10:45:58 PM 38.5460 -103.2010 255° West 413 475 41,500 -97 Level FlightAware ADS-B
Thu 10:46:29 PM 38.5308 -103.2710 255° West 394 453 41,400 -97 Descending FlightAware ADS-B
Thu 10:47:00 PM 38.5152 -103.3430 255° West 397 457 41,400  Level FlightAware ADS-B
Thu 10:47:30 PM 38.4995 -103.4160 255° West 417 480 41,400  Level FlightAware ADS-B
Thu 10:48:01 PM 38.4843 -103.4850 254° West 386 444 41,400  Level FlightAware ADS-B
Thu 10:48:32 PM 38.4687 -103.5570 255° West 401 461 41,400  Level FlightAware ADS-B
Thu 10:49:03 PM 38.4526 -103.6300 254° West 411 473 41,400  Level FlightAware ADS-B
Thu 10:49:33 PM 38.4374 -103.6990 254° West 391 450 41,400  Level FlightAware ADS-B
Thu 10:50:04 PM 38.4222 -103.7680 254° West 401 461 41,400 98 Level FlightAware ADS-B
Thu 10:50:34 PM 38.4065 -103.8390 254° West 433 498 41,500  Climbing FlightAware ADS-B
Thu 10:51:04 PM 38.3913 -103.9080 254° West 401 461 41,400  Descending FlightAware ADS-B
Thu 10:51:35 PM 38.3760 -103.9760 254° West 420 483 41,500 98 Climbing FlightAware ADS-B
Thu 10:52:05 PM 38.3601 -104.0470 254° West 386 444 41,500  Level FlightAware ADS-B
Thu 10:52:35 PM 38.3452 -104.1140 254° West 375 432 41,500  Level FlightAware ADS-B
Thu 10:53:06 PM 38.3293 -104.1850 254° West 406 467 41,500  Level FlightAware ADS-B
Thu 10:53:36 PM 38.3132 -104.2570 254° West 438 504 41,500  Level FlightAware ADS-B
Thu 10:54:10 PM 38.2959 -104.3330 254° West 397 457 41,500  Level FlightAware ADS-B
Thu 10:54:50 PM 38.2748 -104.4260 254° West 424 488 41,500  Level FlightAware ADS-B
Thu 10:55:26 PM 38.2557 -104.5100 254° West 398 458 41,500  Level FlightAware ADS-B
Thu 10:55:57 PM 38.2391 -104.5830 254° West 406 467 41,500  Level FlightAware ADS-B
Thu 10:56:28 PM 38.2224 -104.6560 254° West 391 450 41,500  Level FlightAware ADS-B
Thu 10:57:03 PM 38.2034 -104.7390 254° West 412 474 41,500  Level FlightAware ADS-B
Thu 10:57:34 PM 38.1864 -104.8130 254° West 401 461 41,500  Level FlightAware ADS-B
Thu 10:58:06 PM 38.1683 -104.8910 254° West 461 531 41,500  Level FlightAware ADS-B
Thu 10:58:36 PM 38.1517 -104.9630 254° West 426 490 41,500  Level FlightAware ADS-B
Thu 10:59:09 PM 38.1339 -105.0390 253° West 416 479 41,500  Level FlightAware ADS-B
Thu 10:59:40 PM 38.1166 -105.1130 253° West 433 498 41,500  Level FlightAware ADS-B
Thu 11:00:10 PM 38.0992 -105.1870 253° West 421 484 41,500  Level FlightAware ADS-B
Thu 11:00:41 PM 38.0824 -105.2590 254° West 422 486 41,500  Level FlightAware ADS-B
Thu 11:01:11 PM 38.0655 -105.3310 253° West 464 534 41,500  Level FlightAware ADS-B
Thu 11:01:43 PM 38.0474 -105.4080 253° West 419 482 41,500  Level FlightAware ADS-B
Thu 11:02:13 PM 38.0303 -105.4800 253° West 403 464 41,500  Level FlightAware ADS-B
Thu 11:02:44 PM 38.0121 -105.5560 253° West 421 484 41,500  Level FlightAware ADS-B
Thu 11:03:15 PM 37.9949 -105.6290 253° West 403 464 41,500 -98 Level FlightAware ADS-B
Thu 11:03:45 PM 37.9776 -105.7010 253° West 424 488 41,400 -100 Descending FlightAware ADS-B
Thu 11:04:15 PM 37.9601 -105.7740 253° West 399 459 41,400 97 Level FlightAware ADS-B
Thu 11:04:47 PM 37.9422 -105.8480 253° West 407 468 41,500  Climbing FlightAware ADS-B
Thu 11:05:18 PM 37.9259 -105.9160 253° West 389 448 41,400 -97 Descending FlightAware ADS-B
Thu 11:05:49 PM 37.9073 -105.9930 253° West 407 468 41,400  Level FlightAware ADS-B
Thu 11:06:19 PM 37.8904 -106.0630 253° West 413 475 41,400  Level FlightAware ADS-B
Thu 11:06:50 PM 37.8738 -106.1310 253° West 407 468 41,400  Level FlightAware ADS-B
Thu 11:07:20 PM 37.8567 -106.2010 253° West 403 464 41,400  Level FlightAware ADS-B
Thu 11:07:51 PM 37.8401 -106.2690 253° West 418 481 41,400  Level FlightAware ADS-B
Thu 11:08:21 PM 37.8228 -106.3400 253° West 422 486 41,400  Level FlightAware ADS-B
Thu 11:08:52 PM 37.8059 -106.4080 253° West 387 445 41,400  Level FlightAware ADS-B
Thu 11:09:22 PM 37.7889 -106.4770 253° West 408 470 41,400  Level FlightAware ADS-B
Thu 11:09:52 PM 37.7712 -106.5490 253° West 440 506 41,400  Level FlightAware ADS-B
Thu 11:10:25 PM 37.7527 -106.6230 252° West 400 460 41,400  Level FlightAware ADS-B
Thu 11:10:59 PM 37.7328 -106.7030 253° West 423 487 41,400  Level FlightAware ADS-B
Thu 11:11:39 PM 37.7092 -106.7980 253° West 416 479 41,400 -944 Level FlightAware ADS-B
Thu 11:12:28 PM 37.6803 -106.9092 253° West 426 490 40,000 -757 Descending Denver Center
Thu 11:13:30 PM 37.6467 -107.0456 253° West 425 489 40,000  Level Denver Center
Thu 11:14:31 PM 37.6058 -107.2067 252° West 431 496 40,000  Level Denver Center
Thu 11:15:33 PM 37.5700 -107.3436 252° West 430 495 40,000  Level Denver Center
Thu 11:16:34 PM 37.5356 -107.4781 252° West 424 488 40,000  Level Denver Center
Thu 11:17:36 PM 37.4956 -107.6367 252° West 424 488 40,000  Level Denver Center
Thu 11:18:37 PM 37.4600 -107.7719 252° West 423 487 40,000  Level Denver Center
Thu 11:19:39 PM 37.4200 -107.9269 252° West 417 480 40,000  Level Denver Center
Thu 11:20:41 PM 37.3850 -108.0606 252° West 419 482 40,000  Level Denver Center
Thu 11:21:42 PM 37.3503 -108.1914 252° West 415 478 40,000  Level Denver Center
Thu 11:22:44 PM 37.3097 -108.3456 252° West 418 481 40,000  Level Denver Center
Thu 11:23:45 PM 37.2744 -108.4783 252° West 417 480 40,000  Level Denver Center
Thu 11:24:47 PM 37.2331 -108.6264 251° West 408 470 40,000  Level Denver Center
Thu 11:25:48 PM 37.1992 -108.7586 252° West 413 475 40,000  Level Denver Center
Thu 11:26:50 PM 37.1575 -108.9106 251° West 413 475 40,000 49 Level Denver Center
Thu 11:27:51 PM 37.1214 -109.0408 251° West 414 476 40,100  Climbing Denver Center
Thu 11:28:53 PM 37.0861 -109.1703 251° West 412 474 40,000 -48 Descending Denver Center
Thu 11:29:55 PM 37.0458 -109.3189 251° West 408 470 40,000  Level Denver Center
Thu 11:30:56 PM 37.0100 -109.4475 251° West 409 471 40,000 -239 Level Denver Center
Thu 11:37:03 PM 36.7740 -110.2830 251° West 41,300 -244 Climbing FlightAware ADS-B
Thu 11:37:58 PM 36.7380 -110.4090 250° West 41,300 -310 Level FlightAware ADS-B
Thu 11:38:13 PM 36.7290 -110.4400 250° West 41,400 -317 Climbing FlightAware ADS-B
Thu 11:39:08 PM 36.6960 -110.5560 250° West 41,400 -321 Level FlightAware ADS-B
Thu 11:39:43 PM 36.6710 -110.6400 250° West 41,400 -328 Level FlightAware ADS-B
Thu 11:40:23 PM 36.6460 -110.7280 251° West 41,300 -333 Descending FlightAware ADS-B
Thu 11:41:08 PM 37.5640 -109.5650 45° Northeast 628 723 -336 Descending FlightAware ADS-B
Thu 11:41:58 PM 36.5850 -110.9350 229° Southwest 41,300 730 Climbing FlightAware ADS-B
Thu 11:42:13 PM 36.5750 -110.9700 250° West 41,300 -350 Level FlightAware ADS-B
Thu 11:42:48 PM 36.5530 -111.0440 250° West 41,300 -353 Level FlightAware ADS-B
Thu 11:43:33 PM 36.5260 -111.1370 250° West 41,300 -358 Level FlightAware ADS-B
Thu 11:44:13 PM 36.4990 -111.2260 249° West 41,300 -366 Level FlightAware ADS-B
Thu 11:44:58 PM 36.4700 -111.3250 250° West 41,300 -373 Level FlightAware ADS-B
Thu 11:45:43 PM 36.4420 -111.4200 250° West 41,300 -381 Level FlightAware ADS-B
Thu 11:46:38 PM 37.1820 -109.5650 63° Northeast -389 Descending FlightAware ADS-B
Thu 11:47:18 PM 36.3790 -111.6300 245° Southwest 41,300 852 Climbing FlightAware ADS-B
Thu 11:47:53 PM 36.3580 -111.6980 249° West 41,300 -408 Level FlightAware ADS-B
Thu 11:50:48 PM 36.2510 -112.0510 249° West 41,300 -416 Level FlightAware ADS-B
Thu 11:51:28 PM 36.2290 -112.1220 249° West 41,300 -458 Level FlightAware ADS-B
Thu 11:52:58 PM 36.1570 -112.3580 249° West 41,300 -469 Level FlightAware ADS-B
Thu 11:53:33 PM 36.1410 -112.4090 249° West 41,300 -495 Level FlightAware ADS-B
Thu 11:54:43 PM 37.7540 -109.5650 54° Northeast -506 Descending FlightAware ADS-B
Thu 11:57:58 PM 35.9600 -112.9870 238° Southwest 41,300 1,128 Climbing FlightAware ADS-B
Thu 11:58:58 PM 35.9120 -113.1390 249° West 41,300 -609 Level FlightAware ADS-B
Thu 11:59:43 PM 35.8810 -113.2380 249° West 41,300 -639 Level FlightAware ADS-B
Fri 12:01:08 AM 37.5640 -109.5650 59° Northeast -663 Descending FlightAware ADS-B
Fri 12:01:08 AM 37.5640 -109.5650 59° Northeast 1,519 Level FlightAware ADS-B
Fri 12:02:13 AM 35.7870 -113.5300 242° Southwest 41,300 1,519 Climbing FlightAware ADS-B
Fri 12:02:13 AM 35.7870 -113.5300 242° Southwest 41,300 -758 Level FlightAware ADS-B
Fri 12:02:58 AM 35.7530 -113.6360 248° West 41,300 -758 Level FlightAware ADS-B
Fri 12:02:58 AM 35.7530 -113.6360 248° West 41,300 -792 Level FlightAware ADS-B
Fri 12:04:03 AM 35.7100 -113.7680 248° West 41,300 -792 Level FlightAware ADS-B
Fri 12:04:03 AM 35.7100 -113.7680 248° West 41,300 -847 Level FlightAware ADS-B
Fri 12:04:58 AM 35.6640 -113.9110 248° West 41,300 -847 Level FlightAware ADS-B
Fri 12:06:08 AM 35.6140 -114.0620 248° West 41,300 -900 Level FlightAware ADS-B
Fri 12:07:23 AM 35.5620 -114.2220 248° West 41,200 -978 Descending FlightAware ADS-B
Fri 12:08:03 AM 35.5360 -114.3000 248° West 41,200 -1,069 Level FlightAware ADS-B
Fri 12:08:48 AM 35.5030 -114.4000 248° West 41,200 -1,131 Level FlightAware ADS-B
Fri 12:09:28 AM 35.4770 -114.4790 248° West 40,800 -1,209 Descending FlightAware ADS-B
Fri 12:11:23 AM 35.3930 -114.7300 248° West 38,300 -1,249 Descending FlightAware ADS-B
Fri 12:11:53 AM 35.3710 -114.7970 248° West 37,400 -1,236 Descending FlightAware ADS-B
Fri 12:12:28 AM 35.3460 -114.8700 247° West 36,300 -1,200 Descending FlightAware ADS-B
Fri 12:13:08 AM 35.3180 -114.9540 248° West 35,300 -1,144 Descending FlightAware ADS-B
Fri 12:13:58 AM 35.2790 -115.0690 247° West 35,300 -1,108 Level FlightAware ADS-B
Fri 12:14:48 AM 35.2440 -115.1720 247° West 34,800 -1,271 Descending FlightAware ADS-B
Fri 12:15:38 AM 35.2040 -115.2900 247° West 33,800 -1,386 Descending FlightAware ADS-B
Fri 12:16:13 AM 35.1760 -115.3700 247° West 33,100 -1,425 Descending FlightAware ADS-B
Fri 12:16:58 AM 35.1390 -115.4800 248° West 32,200 -1,463 Descending FlightAware ADS-B
Fri 12:17:38 AM 35.1090 -115.5660 247° West 31,500 -1,538 Descending FlightAware ADS-B
Fri 12:18:33 AM 35.0660 -115.6910 247° West 30,500 -1,700 Descending FlightAware ADS-B
Fri 12:19:38 AM 35.0194 -115.8269 247° West 423 487 28,100 -1,714 Descending Los Angeles Center
Fri 12:20:39 AM 34.9742 -115.9569 247° West 419 482 26,900 -1,180 Descending Los Angeles Center
Fri 12:26:33 AM 34.7750 -116.6830 247° West 20,800 -1,034 Descending FlightAware ADS-B
Fri 12:27:08 AM 34.7680 -116.7540 263° West 20,800  Level FlightAware ADS-B
Fri 12:28:58 AM 34.7440 -116.9950 263° West 20,800  Level FlightAware ADS-B
Fri 12:29:48 AM 34.7300 -117.1300 263° West 20,800  Level FlightAware ADS-B
Fri 12:30:33 AM 34.7200 -117.2320 263° West 20,800  Level FlightAware ADS-B
Fri 12:31:28 AM 34.7080 -117.3480 263° West 20,800  Level FlightAware ADS-B
Fri 12:31:53 AM 34.7020 -117.3990 262° West 20,700 -240 Descending FlightAware ADS-B
Fri 12:32:28 AM 34.6950 -117.4700 263° West 19,800 -1,543 Descending FlightAware ADS-B
Fri 12:33:33 AM 34.6800 -117.6130 263° West 17,800 -1,846 Descending FlightAware ADS-B
Fri 12:34:18 AM 34.6690 -117.7100 262° West 16,500 -1,733 Descending FlightAware ADS-B
Fri 12:35:13 AM 34.6570 -117.8270 263° West 14,800 -1,855 Descending FlightAware ADS-B
Fri 12:38:33 AM 34.6060 -118.1760 260° West 10,500 -1,290 Descending FlightAware ADS-B
Fri 12:39:48 AM 34.5810 -118.2890 255° West 9,000 -1,200 Descending FlightAware ADS-B
Fri 12:40:33 AM 34.5640 -118.3640 255° West 8,200 -1,067 Descending FlightAware ADS-B
Fri 12:40:58 AM 34.5570 -118.3990 256° West 8,200  Level FlightAware ADS-B
Fri 12:41:18 AM 34.5510 -118.4240 254° West 8,200  Level FlightAware ADS-B
Fri 12:41:43 AM 34.5440 -118.4540 254° West 8,200  Level FlightAware ADS-B
Fri 12:42:13 AM 34.5370 -118.4860 255° West 8,200  Level FlightAware ADS-B
Fri 12:42:33 AM 34.5290 -118.5050 243° Southwest 8,200  Level FlightAware ADS-B
Fri 12:43:23 AM 34.4840 -118.5280 203° Southwest 8,200  Level FlightAware ADS-B
Fri 12:43:48 AM 34.4630 -118.5370 199° South 8,000 -480 Descending FlightAware ADS-B
Fri 12:44:08 AM 34.4440 -118.5380 182° South 7,400 -1,800 Descending FlightAware ADS-B
Fri 12:45:08 AM 34.3950 -118.5280 170° South 6,100 -1,300 Descending FlightAware ADS-B
Fri 12:45:43 AM 34.3640 -118.5210 169° South 4,700 -2,400 Descending FlightAware ADS-B
Fri 12:46:08 AM 34.3440 -118.5170 171° South 3,800 -2,160 Descending FlightAware ADS-B
Fri 12:46:38 AM 34.3220 -118.5130 171° South 3,400 -800 Descending FlightAware ADS-B
Fri 12:47:08 AM 34.3020 -118.5080 168° South 3,400  Level FlightAware ADS-B
Fri 12:47:33 AM 34.2880 -118.5030 164° South 3,200 -480 Descending FlightAware ADS-B
Fri 12:47:58 AM 34.2740 -118.4980 164° South 2,900 -720 Descending FlightAware ADS-B
Fri 12:48:13 AM 34.2640 -118.4960 171° South 2,600 -1,200 Descending FlightAware ADS-B
Fri 12:48:43 AM 34.2440 -118.4940 175° South 1,900 -1,400 Descending FlightAware ADS-B
Fri 12:49:13 AM 34.2260 -118.4920 175° South 1,300 -1,200 Descending FlightAware ADS-B
Fri 12:49:33 AM 34.2170 -118.4910 175° South 1,000 -900 Descending FlightAware ADS-B
Fri 12:57:00 AM 34.2098 -118.4900 180° South  Level Estimated

Login

Don't have an account? Register now (free) for customized features, flight alerts, and more!